sensor_id;sensor_type;location;lat;lon;timestamp;pressure;altitude;pressure_sealevel;temperature;humidity
57068;BME280;43391;47.448;18.904;2022-08-21T00:01:55;99170.66;;;18.39;100.00
57068;BME280;43391;47.448;18.904;2022-08-21T00:04:20;99162.78;;;18.39;100.00
57068;BME280;43391;47.448;18.904;2022-08-21T00:06:46;99174.09;;;18.40;100.00
57068;BME280;43391;47.448;18.904;2022-08-21T00:09:11;99170.06;;;18.36;100.00
57068;BME280;43391;47.448;18.904;2022-08-21T00:11:37;99169.41;;;18.33;100.00
57068;BME280;43391;47.448;18.904;2022-08-21T00:14:03;99158.88;;;18.33;100.00
57068;BME280;43391;47.448;18.904;2022-08-21T00:16:30;99155.59;;;18.31;100.00
57068;BME280;43391;47.448;18.904;2022-08-21T00:18:55;99159.16;;;18.30;100.00
57068;BME280;43391;47.448;18.904;2022-08-21T00:21:20;99154.88;;;18.29;100.00
57068;BME280;43391;47.448;18.904;2022-08-21T00:23:47;99153.91;;;18.30;100.00
57068;BME280;43391;47.448;18.904;2022-08-21T00:26:12;99148.81;;;18.29;100.00
57068;BME280;43391;47.448;18.904;2022-08-21T00:28:38;99147.00;;;18.29;100.00
57068;BME280;43391;47.448;18.904;2022-08-21T00:31:03;99144.66;;;18.26;100.00
57068;BME280;43391;47.448;18.904;2022-08-21T00:33:29;99161.22;;;18.27;100.00
57068;BME280;43391;47.448;18.904;2022-08-21T00:35:54;99150.72;;;18.27;100.00
57068;BME280;43391;47.448;18.904;2022-08-21T00:38:20;99151.03;;;18.24;100.00
57068;BME280;43391;47.448;18.904;2022-08-21T00:40:47;99159.72;;;18.24;100.00
57068;BME280;43391;47.448;18.904;2022-08-21T00:43:13;99163.31;;;18.23;100.00
57068;BME280;43391;47.448;18.904;2022-08-21T00:45:39;99160.81;;;18.22;100.00
57068;BME280;43391;47.448;18.904;2022-08-21T00:48:05;99159.47;;;18.17;100.00
57068;BME280;43391;47.448;18.904;2022-08-21T00:50:32;99155.16;;;18.16;100.00
57068;BME280;43391;47.448;18.904;2022-08-21T00:52:58;99152.69;;;18.15;100.00
57068;BME280;43391;47.448;18.904;2022-08-21T00:55:24;99144.81;;;18.15;100.00
57068;BME280;43391;47.448;18.904;2022-08-21T00:57:50;99156.13;;;18.15;100.00
57068;BME280;43391;47.448;18.904;2022-08-21T01:00:21;99148.94;;;18.17;100.00
57068;BME280;43391;47.448;18.904;2022-08-21T01:02:47;99152.38;;;18.18;100.00
57068;BME280;43391;47.448;18.904;2022-08-21T01:05:12;99145.63;;;18.15;100.00
57068;BME280;43391;47.448;18.904;2022-08-21T01:07:38;99143.97;;;18.14;100.00
57068;BME280;43391;47.448;18.904;2022-08-21T01:10:05;99149.34;;;18.13;100.00
57068;BME280;43391;47.448;18.904;2022-08-21T01:12:31;99139.81;;;18.12;100.00
57068;BME280;43391;47.448;18.904;2022-08-21T01:14:56;99146.03;;;18.11;100.00
57068;BME280;43391;47.448;18.904;2022-08-21T01:17:22;99138.28;;;18.09;100.00
57068;BME280;43391;47.448;18.904;2022-08-21T01:19:48;99140.91;;;18.09;100.00
57068;BME280;43391;47.448;18.904;2022-08-21T01:22:13;99138.53;;;18.06;100.00
57068;BME280;43391;47.448;18.904;2022-08-21T01:24:38;99130.81;;;18.04;100.00
57068;BME280;43391;47.448;18.904;2022-08-21T01:27:04;99133.44;;;18.04;100.00
57068;BME280;43391;47.448;18.904;2022-08-21T01:30:04;99131.06;;;18.01;100.00
57068;BME280;43391;47.448;18.904;2022-08-21T01:32:21;99131.91;;;18.02;100.00
57068;BME280;43391;47.448;18.904;2022-08-21T01:34:47;99130.09;;;18.02;100.00
57068;BME280;43391;47.448;18.904;2022-08-21T01:37:13;99127.47;;;18.02;100.00
57068;BME280;43391;47.448;18.904;2022-08-21T01:39:39;99118.91;;;18.00;100.00
57068;BME280;43391;47.448;18.904;2022-08-21T01:42:05;99117.09;;;18.01;100.00
57068;BME280;43391;47.448;18.904;2022-08-21T01:44:31;99120.69;;;18.00;100.00
57068;BME280;43391;47.448;18.904;2022-08-21T01:46:57;99120.81;;;17.98;100.00
57068;BME280;43391;47.448;18.904;2022-08-21T01:49:23;99120.69;;;18.00;100.00
57068;BME280;43391;47.448;18.904;2022-08-21T01:51:48;99117.53;;;17.96;100.00
57068;BME280;43391;47.448;18.904;2022-08-21T01:54:13;99126.50;;;17.93;100.00
57068;BME280;43391;47.448;18.904;2022-08-21T01:56:41;99127.59;;;17.91;100.00
57068;BME280;43391;47.448;18.904;2022-08-21T01:59:07;99124.13;;;17.90;100.00
57068;BME280;43391;47.448;18.904;2022-08-21T02:01:33;99132.84;;;17.91;100.00
57068;BME280;43391;47.448;18.904;2022-08-21T02:03:58;99126.63;;;17.92;100.00
57068;BME280;43391;47.448;18.904;2022-08-21T02:06:24;99123.31;;;17.90;100.00
57068;BME280;43391;47.448;18.904;2022-08-21T02:08:50;99120.81;;;17.88;100.00
57068;BME280;43391;47.448;18.904;2022-08-21T02:11:16;99121.66;;;17.89;100.00
57068;BME280;43391;47.448;18.904;2022-08-21T02:13:41;99120.81;;;17.88;100.00
57068;BME280;43391;47.448;18.904;2022-08-21T02:16:06;99108.53;;;17.89;100.00
57068;BME280;43391;47.448;18.904;2022-08-21T02:18:33;99107.56;;;17.90;100.00
57068;BME280;43391;47.448;18.904;2022-08-21T02:20:58;99111.97;;;17.89;100.00
57068;BME280;43391;47.448;18.904;2022-08-21T02:23:23;99111.31;;;17.87;100.00
57068;BME280;43391;47.448;18.904;2022-08-21T02:25:49;99114.06;;;17.86;100.00
57068;BME280;43391;47.448;18.904;2022-08-21T02:28:14;99109.66;;;17.86;100.00
57068;BME280;43391;47.448;18.904;2022-08-21T02:30:42;99123.72;;;17.85;100.00
57068;BME280;43391;47.448;18.904;2022-08-21T02:33:08;99118.63;;;17.84;100.00
57068;BME280;43391;47.448;18.904;2022-08-21T02:35:34;99132.44;;;17.86;100.00
57068;BME280;43391;47.448;18.904;2022-08-21T02:38:01;99120.00;;;17.88;100.00
57068;BME280;43391;47.448;18.904;2022-08-21T02:40:28;99117.66;;;17.85;100.00
57068;BME280;43391;47.448;18.904;2022-08-21T02:42:56;99108.81;;;17.86;100.00
57068;BME280;43391;47.448;18.904;2022-08-21T02:45:21;99099.16;;;17.86;100.00
57068;BME280;43391;47.448;18.904;2022-08-21T02:47:50;99100.09;;;17.85;100.00
57068;BME280;43391;47.448;18.904;2022-08-21T02:50:26;99102.16;;;17.82;100.00
57068;BME280;43391;47.448;18.904;2022-08-21T02:52:52;99103.97;;;17.81;100.00
57068;BME280;43391;47.448;18.904;2022-08-21T02:55:18;99110.16;;;17.80;100.00
57068;BME280;43391;47.448;18.904;2022-08-21T02:57:43;99103.41;;;17.77;100.00
57068;BME280;43391;47.448;18.904;2022-08-21T03:00:09;99099.25;;;17.75;100.00
57068;BME280;43391;47.448;18.904;2022-08-21T03:02:36;99107.41;;;17.72;100.00
57068;BME280;43391;47.448;18.904;2022-08-21T03:05:01;99100.34;;;17.72;100.00
57068;BME280;43391;47.448;18.904;2022-08-21T03:07:27;99100.34;;;17.72;100.00
57068;BME280;43391;47.448;18.904;2022-08-21T03:09:52;99104.22;;;17.68;100.00
57068;BME280;43391;47.448;18.904;2022-08-21T03:12:17;99096.19;;;17.70;100.00
57068;BME280;43391;47.448;18.904;2022-08-21T03:14:42;99101.59;;;17.68;100.00
57068;BME280;43391;47.448;18.904;2022-08-21T03:17:08;99104.22;;;17.68;100.00
57068;BME280;43391;47.448;18.904;2022-08-21T03:19:33;99104.22;;;17.68;100.00
57068;BME280;43391;47.448;18.904;2022-08-21T03:21:59;99106.44;;;17.63;100.00
57068;BME280;43391;47.448;18.904;2022-08-21T03:24:24;99103.94;;;17.61;100.00
57068;BME280;43391;47.448;18.904;2022-08-21T03:26:49;99110.72;;;17.64;100.00
57068;BME280;43391;47.448;18.904;2022-08-21T03:29:14;99114.31;;;17.63;100.00
57068;BME280;43391;47.448;18.904;2022-08-21T03:31:40;99112.63;;;17.62;100.00
57068;BME280;43391;47.448;18.904;2022-08-21T03:34:05;99113.47;;;17.62;100.00
57068;BME280;43391;47.448;18.904;2022-08-21T03:36:30;99103.22;;;17.59;100.00
57068;BME280;43391;47.448;18.904;2022-08-21T03:38:55;99116.34;;;17.59;100.00
57068;BME280;43391;47.448;18.904;2022-08-21T03:41:21;99115.41;;;17.60;100.00
57068;BME280;43391;47.448;18.904;2022-08-21T03:43:46;99124.09;;;17.61;100.00
57068;BME280;43391;47.448;18.904;2022-08-21T03:46:11;99125.75;;;17.62;100.00
57068;BME280;43391;47.448;18.904;2022-08-21T03:48:37;99122.31;;;17.61;100.00
57068;BME280;43391;47.448;18.904;2022-08-21T03:51:02;99126.72;;;17.61;100.00
57068;BME280;43391;47.448;18.904;2022-08-21T03:53:28;99126.03;;;17.59;100.00
57068;BME280;43391;47.448;18.904;2022-08-21T03:55:55;99127.69;;;17.60;100.00
57068;BME280;43391;47.448;18.904;2022-08-21T03:58:22;99130.19;;;17.61;100.00
57068;BME280;43391;47.448;18.904;2022-08-21T04:00:49;99131.84;;;17.62;100.00
57068;BME280;43391;47.448;18.904;2022-08-21T04:03:16;99134.31;;;17.64;100.00
57068;BME280;43391;47.448;18.904;2022-08-21T04:05:41;99136.94;;;17.64;100.00
57068;BME280;43391;47.448;18.904;2022-08-21T04:08:07;99130.06;;;17.63;100.00
57068;BME280;43391;47.448;18.904;2022-08-21T04:10:34;99136.13;;;17.63;100.00
57068;BME280;43391;47.448;18.904;2022-08-21T04:13:00;99133.50;;;17.63;100.00
57068;BME280;43391;47.448;18.904;2022-08-21T04:15:25;99136.13;;;17.63;100.00
57068;BME280;43391;47.448;18.904;2022-08-21T04:17:51;99135.31;;;17.63;100.00
57068;BME280;43391;47.448;18.904;2022-08-21T04:20:17;99135.97;;;17.65;100.00
57068;BME280;43391;47.448;18.904;2022-08-21T04:22:42;99142.50;;;17.71;100.00
57068;BME280;43391;47.448;18.904;2022-08-21T04:25:09;99138.19;;;17.70;100.00
57068;BME280;43391;47.448;18.904;2022-08-21T04:27:34;99148.69;;;17.70;100.00
57068;BME280;43391;47.448;18.904;2022-08-21T04:30:00;99144.28;;;17.70;100.00
57068;BME280;43391;47.448;18.904;2022-08-21T04:32:26;99139.03;;;17.70;100.00
57068;BME280;43391;47.448;18.904;2022-08-21T04:34:57;99142.34;;;17.72;100.00
57068;BME280;43391;47.448;18.904;2022-08-21T04:37:23;99151.06;;;17.73;100.00
57068;BME280;43391;47.448;18.904;2022-08-21T04:39:48;99156.06;;;17.76;100.00
57068;BME280;43391;47.448;18.904;2022-08-21T04:42:14;99152.16;;;17.80;100.00
57068;BME280;43391;47.448;18.904;2022-08-21T04:44:39;99160.03;;;17.80;100.00
57068;BME280;43391;47.448;18.904;2022-08-21T04:47:05;99160.03;;;17.80;100.00
57068;BME280;43391;47.448;18.904;2022-08-21T04:49:30;99160.03;;;17.80;100.00
57068;BME280;43391;47.448;18.904;2022-08-21T04:51:56;99160.88;;;17.80;100.00
57068;BME280;43391;47.448;18.904;2022-08-21T04:54:21;99162.53;;;17.82;100.00
57068;BME280;43391;47.448;18.904;2022-08-21T04:56:49;99155.50;;;17.82;100.00
57068;BME280;43391;47.448;18.904;2022-08-21T04:59:21;99166.69;;;17.84;100.00
57068;BME280;43391;47.448;18.904;2022-08-21T05:01:47;99158.94;;;17.83;100.00
57068;BME280;43391;47.448;18.904;2022-08-21T05:04:14;99158.94;;;17.83;100.00
57068;BME280;43391;47.448;18.904;2022-08-21T05:06:42;99162.97;;;17.87;100.00
57068;BME280;43391;47.448;18.904;2022-08-21T05:09:08;99165.31;;;17.90;100.00
57068;BME280;43391;47.448;18.904;2022-08-21T05:11:34;99161.06;;;17.89;100.00
57068;BME280;43391;47.448;18.904;2022-08-21T05:14:00;99166.13;;;17.90;100.00
57068;BME280;43391;47.448;18.904;2022-08-21T05:16:26;99170.28;;;17.93;100.00
57068;BME280;43391;47.448;18.904;2022-08-21T05:18:51;99178.16;;;17.93;100.00
57068;BME280;43391;47.448;18.904;2022-08-21T05:21:17;99178.16;;;17.93;100.00
57068;BME280;43391;47.448;18.904;2022-08-21T05:23:42;99179.69;;;17.96;100.00
57068;BME280;43391;47.448;18.904;2022-08-21T05:26:07;99178.03;;;17.95;100.00
57068;BME280;43391;47.448;18.904;2022-08-21T05:28:33;99172.78;;;17.95;100.00
57068;BME280;43391;47.448;18.904;2022-08-21T05:30:58;99177.47;;;17.91;100.00
57068;BME280;43391;47.448;18.904;2022-08-21T05:33:23;99176.50;;;17.92;100.00
57068;BME280;43391;47.448;18.904;2022-08-21T05:35:49;99179.00;;;17.93;100.00
57068;BME280;43391;47.448;18.904;2022-08-21T05:38:15;99180.94;;;17.91;100.00
57068;BME280;43391;47.448;18.904;2022-08-21T05:40:41;99177.47;;;17.91;100.00
57068;BME280;43391;47.448;18.904;2022-08-21T05:43:06;99178.03;;;17.95;100.00
57068;BME280;43391;47.448;18.904;2022-08-21T05:45:32;99173.22;;;18.00;100.00
57068;BME280;43391;47.448;18.904;2022-08-21T05:47:57;99171.56;;;17.99;100.00
57068;BME280;43391;47.448;18.904;2022-08-21T05:50:23;99169.91;;;17.98;100.00
57068;BME280;43391;47.448;18.904;2022-08-21T05:52:48;99169.78;;;17.99;100.00
57068;BME280;43391;47.448;18.904;2022-08-21T05:55:13;99167.56;;;18.04;100.00
57068;BME280;43391;47.448;18.904;2022-08-21T05:57:39;99167.41;;;18.06;100.00
57068;BME280;43391;47.448;18.904;2022-08-21T06:00:06;99167.19;;;18.09;100.00
57068;BME280;43391;47.448;18.904;2022-08-21T06:02:34;99166.91;;;18.12;100.00
57068;BME280;43391;47.448;18.904;2022-08-21T06:04:59;99175.34;;;18.16;100.00
57068;BME280;43391;47.448;18.904;2022-08-21T06:07:24;99166.50;;;18.17;100.00
57068;BME280;43391;47.448;18.904;2022-08-21T06:09:50;99180.19;;;18.21;100.00
57068;BME280;43391;47.448;18.904;2022-08-21T06:12:15;99173.94;;;18.22;100.00
57068;BME280;43391;47.448;18.904;2022-08-21T06:14:40;99178.94;;;18.25;100.00
57068;BME280;43391;47.448;18.904;2022-08-21T06:17:07;99174.38;;;18.27;100.00
57068;BME280;43391;47.448;18.904;2022-08-21T06:19:32;99170.09;;;18.26;100.00
57068;BME280;43391;47.448;18.904;2022-08-21T06:21:58;99176.59;;;18.31;100.00
57068;BME280;43391;47.448;18.904;2022-08-21T06:24:23;99175.63;;;18.32;100.00
57068;BME280;43391;47.448;18.904;2022-08-21T06:26:49;99179.34;;;18.30;100.00
57068;BME280;43391;47.448;18.904;2022-08-21T06:29:14;99174.38;;;18.27;100.00
57068;BME280;43391;47.448;18.904;2022-08-21T06:31:42;99177.13;;;18.25;100.00
57068;BME280;43391;47.448;18.904;2022-08-21T06:34:07;99177.72;;;18.29;100.00
57068;BME280;43391;47.448;18.904;2022-08-21T06:36:32;99181.00;;;18.31;100.00
57068;BME280;43391;47.448;18.904;2022-08-21T06:38:58;99180.16;;;18.30;100.00
57068;BME280;43391;47.448;18.904;2022-08-21T06:41:23;99180.75;;;18.34;100.00
57068;BME280;43391;47.448;18.904;2022-08-21T06:43:49;99180.03;;;18.32;100.00
57068;BME280;43391;47.448;18.904;2022-08-21T06:46:14;99186.97;;;18.43;100.00
57068;BME280;43391;47.448;18.904;2022-08-21T06:48:39;99180.44;;;18.57;100.00
57068;BME280;43391;47.448;18.904;2022-08-21T06:51:04;99183.06;;;18.67;99.47
57068;BME280;43391;47.448;18.904;2022-08-21T06:53:30;99183.19;;;18.75;99.09
57068;BME280;43391;47.448;18.904;2022-08-21T06:55:55;99181.94;;;18.89;99.24
57068;BME280;43391;47.448;18.904;2022-08-21T06:58:20;99187.31;;;19.07;98.27
57068;BME280;43391;47.448;18.904;2022-08-21T07:00:47;99178.97;;;19.22;96.38
57068;BME280;43391;47.448;18.904;2022-08-21T07:03:17;99180.97;;;19.38;95.98
57068;BME280;43391;47.448;18.904;2022-08-21T07:05:42;99179.69;;;19.52;94.70
57068;BME280;43391;47.448;18.904;2022-08-21T07:08:07;99176.22;;;19.51;93.12
57068;BME280;43391;47.448;18.904;2022-08-21T07:10:33;99183.97;;;19.53;94.28
57068;BME280;43391;47.448;18.904;2022-08-21T07:12:58;99185.09;;;19.50;94.25
57068;BME280;43391;47.448;18.904;2022-08-21T07:15:23;99180.94;;;19.48;93.87
57068;BME280;43391;47.448;18.904;2022-08-21T07:17:48;99180.25;;;19.46;93.95
57068;BME280;43391;47.448;18.904;2022-08-21T07:20:14;99180.81;;;19.49;94.34
57068;BME280;43391;47.448;18.904;2022-08-21T07:22:39;99180.81;;;19.49;93.14
57068;BME280;43391;47.448;18.904;2022-08-21T07:25:05;99173.72;;;19.50;93.46
57068;BME280;43391;47.448;18.904;2022-08-21T07:27:31;99182.75;;;19.47;94.07
57068;BME280;43391;47.448;18.904;2022-08-21T07:29:56;99178.72;;;19.43;93.69
57068;BME280;43391;47.448;18.904;2022-08-21T07:32:22;99181.38;;;19.43;93.31
57068;BME280;43391;47.448;18.904;2022-08-21T07:34:47;99182.72;;;19.57;94.80
57068;BME280;43391;47.448;18.904;2022-08-21T07:37:12;99182.91;;;19.74;93.91
57068;BME280;43391;47.448;18.904;2022-08-21T07:39:37;99178.78;;;19.89;92.85
57068;BME280;43391;47.448;18.904;2022-08-21T07:42:03;99173.56;;;20.08;91.34
57068;BME280;43391;47.448;18.904;2022-08-21T07:44:29;99174.53;;;20.25;90.49
57068;BME280;43391;47.448;18.904;2022-08-21T07:46:54;99174.31;;;20.36;90.73
57068;BME280;43391;47.448;18.904;2022-08-21T07:49:19;99167.09;;;20.38;90.52
57068;BME280;43391;47.448;18.904;2022-08-21T07:51:44;99165.28;;;20.39;90.59
57068;BME280;43391;47.448;18.904;2022-08-21T07:54:10;99167.38;;;20.35;89.80
57068;BME280;43391;47.448;18.904;2022-08-21T07:56:35;99170.09;;;20.25;90.42
57068;BME280;43391;47.448;18.904;2022-08-21T07:59:00;99162.94;;;20.17;90.23
57068;BME280;43391;47.448;18.904;2022-08-21T08:01:27;99165.81;;;20.06;90.31
57068;BME280;43391;47.448;18.904;2022-08-21T08:03:53;99163.84;;;20.08;90.36
57068;BME280;43391;47.448;18.904;2022-08-21T08:06:18;99161.59;;;20.13;91.01
57068;BME280;43391;47.448;18.904;2022-08-21T08:08:44;99159.31;;;20.18;90.84
57068;BME280;43391;47.448;18.904;2022-08-21T08:11:10;99160.53;;;20.24;90.65
57068;BME280;43391;47.448;18.904;2022-08-21T08:13:46;99157.53;;;20.37;89.85
57068;BME280;43391;47.448;18.904;2022-08-21T08:16:12;99158.47;;;20.54;89.69
57068;BME280;43391;47.448;18.904;2022-08-21T08:18:37;99157.63;;;20.72;88.16
57068;BME280;43391;47.448;18.904;2022-08-21T08:21:03;99152.94;;;20.84;88.05
57068;BME280;43391;47.448;18.904;2022-08-21T08:23:29;99149.22;;;20.77;87.39
57068;BME280;43391;47.448;18.904;2022-08-21T08:25:55;99147.38;;;20.69;86.63
57068;BME280;43391;47.448;18.904;2022-08-21T08:28:21;99141.88;;;20.62;87.33
57068;BME280;43391;47.448;18.904;2022-08-21T08:30:47;99139.72;;;20.57;87.81
57068;BME280;43391;47.448;18.904;2022-08-21T08:33:13;99144.38;;;20.64;88.02
57068;BME280;43391;47.448;18.904;2022-08-21T08:35:38;99140.88;;;20.81;87.43
57068;BME280;43391;47.448;18.904;2022-08-21T08:38:05;99145.34;;;21.07;86.99
57068;BME280;43391;47.448;18.904;2022-08-21T08:42:55;99148.22;;;21.22;85.76
57068;BME280;43391;47.448;18.904;2022-08-21T08:45:21;99148.56;;;21.28;84.67
57068;BME280;43391;47.448;18.904;2022-08-21T08:47:50;99138.50;;;21.31;84.05
57068;BME280;43391;47.448;18.904;2022-08-21T08:50:25;99148.44;;;21.37;84.83
57068;BME280;43391;47.448;18.904;2022-08-21T08:52:53;99144.63;;;21.40;84.74
57068;BME280;43391;47.448;18.904;2022-08-21T08:55:21;99155.09;;;21.50;84.42
57068;BME280;43391;47.448;18.904;2022-08-21T08:57:49;99148.81;;;21.51;82.90
57068;BME280;43391;47.448;18.904;2022-08-21T09:00:15;99155.59;;;21.54;82.25
57068;BME280;43391;47.448;18.904;2022-08-21T09:02:42;99149.53;;;21.70;82.54
57068;BME280;43391;47.448;18.904;2022-08-21T09:05:09;99153.53;;;21.74;82.49
57068;BME280;43391;47.448;18.904;2022-08-21T09:10:21;99160.88;;;21.62;82.87
57068;BME280;43391;47.448;18.904;2022-08-21T09:15:28;99157.09;;;21.56;83.91
57068;BME280;43391;47.448;18.904;2022-08-21T09:20:53;99153.72;;;21.81;83.00
57068;BME280;43391;47.448;18.904;2022-08-21T09:25:56;99150.75;;;21.84;81.96
57068;BME280;43391;47.448;18.904;2022-08-21T09:28:24;99150.25;;;21.80;81.83
57068;BME280;43391;47.448;18.904;2022-08-21T09:30:49;99148.59;;;21.71;82.06
57068;BME280;43391;47.448;18.904;2022-08-21T09:33:16;99146.13;;;21.86;82.53
57068;BME280;43391;47.448;18.904;2022-08-21T09:35:50;99145.34;;;22.19;82.22
57068;BME280;43391;47.448;18.904;2022-08-21T09:38:24;99138.09;;;22.46;79.40
57068;BME280;43391;47.448;18.904;2022-08-21T09:40:54;99149.31;;;22.48;78.75
57068;BME280;43391;47.448;18.904;2022-08-21T09:43:21;99151.47;;;22.52;79.60
57068;BME280;43391;47.448;18.904;2022-08-21T09:45:47;99144.88;;;22.65;78.01
57068;BME280;43391;47.448;18.904;2022-08-21T09:48:20;99137.25;;;22.70;77.93
57068;BME280;43391;47.448;18.904;2022-08-21T09:50:46;99135.44;;;22.71;78.32
57068;BME280;43391;47.448;18.904;2022-08-21T09:53:23;99139.06;;;22.69;78.81
57068;BME280;43391;47.448;18.904;2022-08-21T09:56:04;99136.78;;;22.58;78.41
57068;BME280;43391;47.448;18.904;2022-08-21T09:58:49;99140.75;;;22.54;78.46
57068;BME280;43391;47.448;18.904;2022-08-21T10:01:17;99137.94;;;22.55;79.68
57068;BME280;43391;47.448;18.904;2022-08-21T10:03:43;99145.88;;;22.55;79.34
57068;BME280;43391;47.448;18.904;2022-08-21T10:06:09;99151.31;;;22.46;79.40
57068;BME280;43391;47.448;18.904;2022-08-21T10:08:37;99144.69;;;22.41;79.94
57068;BME280;43391;47.448;18.904;2022-08-21T10:11:07;99145.00;;;22.38;78.93
57068;BME280;43391;47.448;18.904;2022-08-21T10:21:53;99146.94;;;23.03;78.48
57068;BME280;43391;47.448;18.904;2022-08-21T10:32:00;99136.47;;;23.18;75.69
57068;BME280;43391;47.448;18.904;2022-08-21T10:36:58;99142.19;;;23.38;75.52
57068;BME280;43391;47.448;18.904;2022-08-21T10:39:32;99137.81;;;23.54;75.00
57068;BME280;43391;47.448;18.904;2022-08-21T10:47:08;99143.59;;;23.89;73.52
57068;BME280;43391;47.448;18.904;2022-08-21T10:55:16;99134.22;;;24.10;73.23
57068;BME280;43391;47.448;18.904;2022-08-21T10:57:50;99140.22;;;24.27;72.71
57068;BME280;43391;47.448;18.904;2022-08-21T11:00:23;99131.81;;;24.38;72.33
57068;BME280;43391;47.448;18.904;2022-08-21T11:03:02;99130.66;;;24.41;71.19
57068;BME280;43391;47.448;18.904;2022-08-21T11:08:14;99124.78;;;24.46;69.62
57068;BME280;43391;47.448;18.904;2022-08-21T11:11:04;99126.25;;;24.48;70.68
57068;BME280;43391;47.448;18.904;2022-08-21T11:13:43;99136.97;;;24.55;70.29
57068;BME280;43391;47.448;18.904;2022-08-21T11:16:23;99131.00;;;24.38;70.95
57068;BME280;43391;47.448;18.904;2022-08-21T11:19:14;99123.31;;;24.28;71.09
57068;BME280;43391;47.448;18.904;2022-08-21T11:29:57;99127.16;;;23.94;71.91
57068;BME280;43391;47.448;18.904;2022-08-21T11:35:46;99117.53;;;24.01;71.55
57068;BME280;43391;47.448;18.904;2022-08-21T11:41:20;99118.16;;;24.03;70.89
57068;BME280;43391;47.448;18.904;2022-08-21T11:43:53;99115.03;;;23.99;71.37
57068;BME280;43391;47.448;18.904;2022-08-21T11:46:28;99115.03;;;23.99;71.25
57068;BME280;43391;47.448;18.904;2022-08-21T11:54:27;99107.22;;;23.83;71.66
57068;BME280;43391;47.448;18.904;2022-08-21T11:56:59;99098.19;;;23.69;72.49
57068;BME280;43391;47.448;18.904;2022-08-21T11:59:36;99108.50;;;23.64;72.93
57068;BME280;43391;47.448;18.904;2022-08-21T12:02:11;99109.56;;;23.46;73.19
57068;BME280;43391;47.448;18.904;2022-08-21T12:04:45;99106.31;;;23.35;73.74
57068;BME280;43391;47.448;18.904;2022-08-21T12:07:17;99111.63;;;23.27;74.15
57068;BME280;43391;47.448;18.904;2022-08-21T12:09:55;99099.28;;;23.11;75.00
57068;BME280;43391;47.448;18.904;2022-08-21T12:12:30;99097.16;;;22.98;75.31
57068;BME280;43391;47.448;18.904;2022-08-21T12:25:39;99096.78;;;22.61;77.85
57068;BME280;43391;47.448;18.904;2022-08-21T12:28:14;99099.91;;;22.56;78.27
57068;BME280;43391;47.448;18.904;2022-08-21T12:30:44;99098.44;;;22.54;78.38
57068;BME280;43391;47.448;18.904;2022-08-21T12:33:34;99102.41;;;22.50;78.61
57068;BME280;43391;47.448;18.904;2022-08-21T12:36:07;99099.56;;;22.51;78.85
57068;BME280;43391;47.448;18.904;2022-08-21T12:38:46;99103.03;;;22.52;79.01
57068;BME280;43391;47.448;18.904;2022-08-21T12:41:19;99094.28;;;22.51;78.88
57068;BME280;43391;47.448;18.904;2022-08-21T12:43:51;99093.63;;;22.41;78.78
57068;BME280;43391;47.448;18.904;2022-08-21T12:46:24;99095.13;;;22.35;79.53
57068;BME280;43391;47.448;18.904;2022-08-21T12:48:58;99089.50;;;22.38;79.33
57068;BME280;43391;47.448;18.904;2022-08-21T12:51:34;99094.78;;;22.47;79.87
57068;BME280;43391;47.448;18.904;2022-08-21T12:54:03;99090.00;;;22.42;78.94
57068;BME280;43391;47.448;18.904;2022-08-21T12:56:32;99089.00;;;22.35;78.62
57068;BME280;43391;47.448;18.904;2022-08-21T12:59:07;99082.91;;;22.34;79.49
57068;BME280;43391;47.448;18.904;2022-08-21T13:01:39;99084.06;;;22.32;79.81
57068;BME280;43391;47.448;18.904;2022-08-21T13:04:16;99083.06;;;22.24;80.31
57068;BME280;43391;47.448;18.904;2022-08-21T13:06:45;99084.22;;;22.22;80.09
57068;BME280;43391;47.448;18.904;2022-08-21T13:09:15;99080.94;;;22.20;80.92
57068;BME280;43391;47.448;18.904;2022-08-21T13:11:43;99074.00;;;22.19;80.26
57068;BME280;43391;47.448;18.904;2022-08-21T13:14:23;99071.03;;;22.13;79.77
57068;BME280;43391;47.448;18.904;2022-08-21T13:16:54;99073.50;;;21.98;80.55
57068;BME280;43391;47.448;18.904;2022-08-21T13:19:20;99068.41;;;21.97;81.91
57068;BME280;43391;47.448;18.904;2022-08-21T13:21:45;99068.22;;;21.90;80.95
57068;BME280;43391;47.448;18.904;2022-08-21T13:24:18;99068.34;;;21.80;81.50
57068;BME280;43391;47.448;18.904;2022-08-21T13:26:45;99065.34;;;21.67;81.95
57068;BME280;43391;47.448;18.904;2022-08-21T13:29:14;99068.47;;;21.62;83.22
57068;BME280;43391;47.448;18.904;2022-08-21T13:31:47;99069.47;;;21.53;83.15
57068;BME280;43391;47.448;18.904;2022-08-21T13:34:14;99076.38;;;21.54;83.64
57068;BME280;43391;47.448;18.904;2022-08-21T13:36:41;99084.63;;;21.50;83.08
57068;BME280;43391;47.448;18.904;2022-08-21T13:39:12;99086.25;;;21.51;84.09
57068;BME280;43391;47.448;18.904;2022-08-21T13:41:41;99085.13;;;21.46;83.58
57068;BME280;43391;47.448;18.904;2022-08-21T13:44:20;99082.28;;;21.39;84.78
57068;BME280;43391;47.448;18.904;2022-08-21T13:46:48;99081.09;;;21.33;86.53
57068;BME280;43391;47.448;18.904;2022-08-21T13:49:16;99084.38;;;21.27;87.91
57068;BME280;43391;47.448;18.904;2022-08-21T13:51:44;99096.53;;;21.11;89.51
57068;BME280;43391;47.448;18.904;2022-08-21T13:54:38;99082.75;;;20.91;91.33
57068;BME280;43391;47.448;18.904;2022-08-21T13:57:04;99079.03;;;20.76;92.29
57068;BME280;43391;47.448;18.904;2022-08-21T13:59:40;99072.19;;;20.65;93.71
57068;BME280;43391;47.448;18.904;2022-08-21T14:02:13;99066.56;;;20.60;94.07
57068;BME280;43391;47.448;18.904;2022-08-21T14:05:04;99069.66;;;20.55;96.13